createdAt,value
2018-02-14T00:00:21.027Z,38.82
2018-02-14T00:01:21.491Z,38.76
2018-02-14T00:02:21.951Z,38.77
2018-02-14T00:03:22.408Z,38.78
2018-02-14T00:04:22.923Z,38.73
2018-02-14T00:05:23.334Z,38.72
2018-02-14T00:06:23.795Z,38.68
2018-02-14T00:07:24.252Z,38.69
2018-02-14T00:08:24.717Z,38.64
2018-02-14T00:09:25.235Z,38.64
2018-02-14T00:10:25.641Z,38.59
2018-02-14T00:11:26.101Z,38.55
2018-02-14T00:12:26.561Z,38.50
2018-02-14T00:13:27.028Z,38.45
2018-02-14T00:14:27.577Z,38.45
2018-02-14T00:15:27.948Z,38.40
2018-02-14T00:16:28.407Z,38.37
2018-02-14T00:17:28.868Z,38.37
2018-02-14T00:18:29.325Z,38.37
2018-02-14T00:19:29.791Z,38.38
2018-02-14T00:20:30.251Z,38.36
2018-02-14T00:21:30.714Z,38.41
2018-02-14T00:22:31.180Z,38.43
2018-02-14T00:23:31.634Z,38.46
2018-02-14T00:25:32.551Z,38.51
2018-02-14T00:26:33.019Z,38.52
2018-02-14T00:27:33.481Z,38.55
2018-02-14T00:28:33.940Z,38.52
2018-02-14T00:29:34.398Z,38.53
2018-02-14T00:30:34.862Z,38.54
2018-02-14T00:31:35.325Z,38.51
2018-02-14T00:32:35.787Z,38.42
2018-02-14T00:34:36.758Z,38.37
2018-02-14T00:35:37.166Z,38.37
2018-02-14T00:36:37.623Z,38.36
2018-02-14T00:37:38.089Z,38.35
2018-02-14T00:38:38.551Z,38.36
2018-02-14T00:39:39.012Z,38.43
2018-02-14T00:40:39.478Z,38.45
2018-02-14T00:41:39.934Z,38.49
2018-02-14T00:42:40.396Z,38.49
2018-02-14T00:43:40.855Z,38.54
2018-02-14T00:44:41.368Z,38.56
2018-02-14T00:45:41.777Z,38.55
2018-02-14T00:47:42.700Z,38.54
2018-02-14T00:48:43.159Z,38.53
2018-02-14T00:49:43.626Z,38.52
2018-02-14T00:50:44.082Z,38.49
2018-02-14T00:51:44.544Z,38.45
2018-02-14T00:52:45.006Z,38.45
2018-02-14T00:53:45.466Z,38.46
2018-02-14T00:54:45.928Z,38.46
2018-02-14T00:55:46.386Z,38.45
2018-02-14T00:56:46.855Z,38.44
2018-02-14T00:57:47.308Z,38.45
2018-02-14T00:58:47.766Z,38.46
2018-02-14T00:59:48.233Z,38.49
2018-02-14T01:00:48.691Z,38.51
2018-02-14T01:01:49.152Z,38.50
2018-02-14T01:02:49.613Z,38.48
2018-02-14T01:04:50.588Z,38.47
2018-02-14T01:05:51.336Z,38.49
2018-02-14T01:06:51.457Z,38.49
2018-02-14T01:07:51.916Z,38.49
2018-02-14T01:08:52.377Z,38.47
2018-02-14T01:09:52.838Z,38.46
2018-02-14T01:10:53.301Z,38.46
2018-02-14T01:11:53.761Z,38.49
2018-02-14T01:12:54.225Z,38.51
2018-02-14T01:13:54.682Z,38.51
2018-02-14T01:14:55.145Z,38.53
2018-02-14T01:15:55.604Z,38.57
2018-02-14T01:16:56.059Z,38.63
2018-02-14T01:17:56.525Z,38.65
2018-02-14T01:18:56.987Z,38.67
2018-02-14T01:19:57.445Z,38.71
2018-02-14T01:20:57.903Z,38.74
2018-02-14T01:21:58.377Z,38.75
2018-02-14T01:24:59.800Z,38.77
2018-02-14T01:26:00.212Z,38.77
2018-02-14T01:28:01.128Z,38.79
2018-02-14T01:29:01.595Z,38.79
2018-02-14T01:30:02.054Z,38.80
2018-02-14T01:31:02.518Z,38.87
2018-02-14T01:32:02.970Z,38.92
2018-02-14T01:34:03.898Z,38.98
2018-02-14T01:35:04.358Z,39.00
2018-02-14T01:36:04.818Z,38.97
2018-02-14T01:37:05.279Z,38.96
2018-02-14T01:39:06.197Z,38.94
2018-02-14T01:40:07.001Z,38.92
2018-02-14T01:41:07.123Z,38.86
2018-02-14T01:43:08.044Z,38.85
2018-02-14T01:44:08.542Z,38.78
2018-02-14T01:45:09.015Z,38.73
2018-02-14T01:46:09.425Z,38.67
2018-02-14T01:47:09.888Z,38.66
2018-02-14T01:49:10.807Z,38.61
2018-02-14T01:50:11.263Z,38.57
2018-02-14T01:51:11.728Z,38.54
2018-02-14T01:52:12.188Z,38.53
2018-02-14T01:53:12.650Z,38.53
2018-02-14T01:54:13.115Z,38.49
2018-02-14T01:55:13.573Z,38.51
2018-02-14T01:56:14.031Z,38.52
2018-02-14T01:57:14.486Z,38.50
2018-02-14T01:59:15.418Z,38.44
2018-02-14T02:01:16.331Z,38.44
2018-02-14T02:02:16.795Z,38.45
2018-02-14T02:03:17.257Z,38.41
2018-02-14T02:04:17.715Z,38.43
2018-02-14T02:05:18.227Z,38.44
2018-02-14T02:06:18.637Z,38.44
2018-02-14T02:07:19.440Z,38.43
2018-02-14T02:08:19.555Z,38.43
2018-02-14T02:09:20.019Z,38.44
2018-02-14T02:10:20.488Z,38.49
2018-02-14T02:11:20.941Z,38.47
2018-02-14T02:12:21.398Z,38.47
2018-02-14T02:13:21.863Z,38.49
2018-02-14T02:14:22.322Z,38.50
2018-02-14T02:15:22.835Z,38.50
2018-02-14T02:16:23.243Z,38.52
2018-02-14T02:17:23.706Z,38.56
2018-02-14T02:18:24.164Z,38.57
2018-02-14T02:19:24.623Z,38.58
2018-02-14T02:21:25.547Z,38.66
2018-02-14T02:22:26.009Z,38.70
2018-02-14T02:24:26.928Z,38.71
2018-02-14T02:25:27.443Z,38.69
2018-02-14T02:26:27.850Z,38.64
2018-02-14T02:27:28.311Z,38.61
2018-02-14T02:28:28.771Z,38.62
2018-02-14T02:29:29.232Z,38.58
2018-02-14T02:30:29.687Z,38.55
2018-02-14T02:31:30.153Z,38.53
2018-02-14T02:32:30.965Z,38.52
2018-02-14T02:33:31.077Z,38.50
2018-02-14T02:34:31.535Z,38.52
2018-02-14T02:35:31.997Z,38.47
2018-02-14T02:36:32.454Z,38.47
2018-02-14T02:37:32.918Z,38.49
2018-02-14T02:38:33.377Z,38.39
2018-02-14T02:39:33.874Z,38.37
2018-02-14T02:40:34.297Z,38.35
2018-02-14T02:41:34.756Z,38.33
2018-02-14T02:42:35.232Z,38.25
2018-02-14T02:43:35.678Z,38.24
2018-02-14T02:44:36.138Z,38.21
2018-02-14T02:45:48.233Z,38.20
2018-02-14T02:46:37.098Z,38.19
2018-02-14T02:47:37.524Z,38.12
2018-02-14T02:48:37.978Z,38.12
2018-02-14T02:49:38.445Z,38.10
2018-02-14T02:50:38.903Z,38.07
2018-02-14T02:51:39.365Z,38.06
2018-02-14T02:52:39.818Z,38.05
2018-02-14T02:53:40.285Z,38.03
2018-02-14T02:54:40.745Z,38.00
2018-02-14T02:55:41.254Z,37.99
2018-02-14T02:56:41.665Z,37.97
2018-02-14T02:57:42.129Z,37.96
2018-02-14T02:58:42.588Z,37.96
2018-02-14T02:59:43.042Z,37.96
2018-02-14T03:00:43.558Z,37.94
2018-02-14T03:01:43.968Z,37.96
2018-02-14T03:03:44.885Z,38.03
2018-02-14T03:04:45.347Z,38.10
2018-02-14T03:05:45.859Z,38.15
2018-02-14T03:06:46.609Z,38.16
2018-02-14T03:07:46.730Z,38.16
2018-02-14T03:08:47.189Z,38.16
2018-02-14T03:09:47.649Z,38.11
2018-02-14T03:10:48.107Z,38.07
2018-02-14T03:11:48.571Z,38.05
2018-02-14T03:12:49.034Z,38.00
2018-02-14T03:13:49.492Z,37.97
2018-02-14T03:14:49.954Z,37.93
2018-02-14T03:15:50.414Z,37.93
2018-02-14T03:16:50.873Z,37.87
2018-02-14T03:17:51.336Z,37.87
2018-02-14T03:18:51.795Z,37.88
2018-02-14T03:19:52.255Z,37.90
2018-02-14T03:20:52.715Z,37.98
2018-02-14T03:21:53.173Z,38.02
2018-02-14T03:22:53.636Z,38.01
2018-02-14T03:23:54.094Z,38.02
2018-02-14T03:24:54.556Z,38.07
2018-02-14T03:25:55.065Z,38.16
2018-02-14T03:26:55.476Z,38.22
2018-02-14T03:27:55.940Z,38.29
2018-02-14T03:28:56.397Z,38.33
2018-02-14T03:29:56.860Z,38.41
2018-02-14T03:30:57.369Z,38.46
2018-02-14T03:31:57.779Z,38.50
2018-02-14T03:32:58.233Z,38.53
2018-02-14T03:34:59.160Z,38.63
2018-02-14T03:35:59.622Z,38.69
2018-02-14T03:37:00.084Z,38.75
2018-02-14T03:38:00.541Z,38.78
2018-02-14T03:39:01.000Z,38.79
2018-02-14T03:40:01.457Z,38.79
2018-02-14T03:41:01.970Z,38.80
2018-02-14T03:42:02.382Z,38.79
2018-02-14T03:43:03.046Z,38.75
2018-02-14T03:44:03.300Z,38.67
2018-02-14T03:45:03.761Z,38.62
2018-02-14T03:47:04.683Z,38.52
2018-02-14T03:48:05.143Z,38.49
2018-02-14T03:49:05.604Z,38.44
2018-02-14T03:51:06.522Z,38.41
2018-02-14T03:52:07.326Z,38.34
2018-02-14T03:53:07.445Z,38.28
2018-02-14T03:54:07.906Z,38.25
2018-02-14T03:55:08.360Z,38.29
2018-02-14T03:56:20.305Z,38.32
2018-02-14T03:57:09.288Z,38.38
2018-02-14T03:58:09.745Z,38.46
2018-02-14T03:59:10.209Z,38.54
2018-02-14T04:00:10.667Z,38.63
2018-02-14T04:01:11.173Z,38.70
2018-02-14T04:02:11.586Z,38.74
2018-02-14T04:03:12.047Z,38.81
2018-02-14T04:04:12.508Z,38.87
2018-02-14T04:05:12.968Z,38.94
2018-02-14T04:06:13.480Z,39.03
2018-02-14T04:08:14.349Z,39.19
2018-02-14T04:09:14.808Z,39.24
2018-02-14T04:10:15.307Z,39.27
2018-02-14T04:11:15.782Z,39.31
2018-02-14T04:12:16.188Z,39.36
2018-02-14T04:13:16.649Z,39.38
2018-02-14T04:14:17.111Z,39.41
2018-02-14T04:15:17.570Z,39.48
2018-02-14T04:17:30.273Z,39.57
2018-02-14T04:18:18.952Z,39.62
2018-02-14T04:19:19.409Z,39.66
2018-02-14T04:20:19.873Z,39.71
2018-02-14T04:21:20.333Z,39.74
2018-02-14T04:22:20.843Z,39.78
2018-02-14T04:23:21.250Z,39.80
2018-02-14T04:24:21.713Z,39.81
2018-02-14T04:25:22.172Z,39.80
2018-02-14T04:26:22.634Z,39.82
2018-02-14T04:27:23.145Z,39.85
2018-02-14T04:28:23.555Z,39.88
2018-02-14T04:29:24.016Z,39.88
2018-02-14T04:30:24.470Z,39.89
2018-02-14T04:31:24.934Z,39.90
2018-02-14T04:32:25.399Z,39.94
2018-02-14T04:34:26.316Z,39.91
2018-02-14T04:35:26.775Z,39.95
2018-02-14T04:36:27.233Z,39.95
2018-02-14T04:37:27.747Z,40.00
2018-02-14T04:38:28.151Z,40.01
2018-02-14T04:39:28.616Z,40.02
2018-02-14T04:40:29.078Z,39.99
2018-02-14T04:41:29.737Z,39.99
2018-02-14T04:42:29.996Z,40.00
2018-02-14T04:43:30.457Z,40.03
2018-02-14T04:44:30.918Z,40.04
2018-02-14T04:45:31.371Z,40.09
2018-02-14T04:46:31.837Z,40.08
2018-02-14T04:47:32.349Z,40.07
2018-02-14T04:48:32.758Z,40.09
2018-02-14T04:49:33.218Z,40.11
2018-02-14T04:51:34.140Z,40.09
2018-02-14T04:52:34.599Z,40.09
2018-02-14T04:53:35.061Z,40.10
2018-02-14T04:54:35.520Z,40.12
2018-02-14T04:55:35.980Z,40.12
2018-02-14T04:56:36.439Z,40.11
2018-02-14T04:57:36.951Z,40.09
2018-02-14T04:58:37.356Z,40.10
2018-02-14T04:59:37.823Z,40.11
2018-02-14T05:00:38.281Z,40.14
2018-02-14T05:01:38.740Z,40.14
2018-02-14T05:02:39.247Z,40.14
2018-02-14T05:03:39.661Z,40.17
2018-02-14T05:04:40.325Z,40.19
2018-02-14T05:05:40.581Z,40.19
2018-02-14T05:06:41.045Z,40.20
2018-02-14T05:07:41.555Z,40.15
2018-02-14T05:08:41.963Z,40.12
2018-02-14T05:09:42.423Z,40.11
2018-02-14T05:11:43.345Z,40.09
2018-02-14T05:12:43.859Z,40.08
2018-02-14T05:13:44.264Z,40.08
2018-02-14T05:14:44.726Z,40.09
2018-02-14T05:15:45.186Z,40.08
2018-02-14T05:16:45.646Z,40.08
2018-02-14T05:17:46.155Z,40.17
2018-02-14T05:19:47.028Z,40.10
2018-02-14T05:20:47.486Z,40.07
2018-02-14T05:21:47.947Z,40.07
2018-02-14T05:22:48.457Z,40.05
2018-02-14T05:23:48.864Z,40.04
2018-02-14T05:24:49.326Z,40.06
2018-02-14T05:25:49.786Z,40.07
2018-02-14T05:26:50.248Z,40.07
2018-02-14T05:27:50.708Z,40.10
2018-02-14T05:28:51.170Z,40.11
2018-02-14T05:29:51.628Z,40.09
2018-02-14T05:31:52.548Z,40.07
2018-02-14T05:32:53.055Z,40.12
2018-02-14T05:33:53.471Z,40.18
2018-02-14T05:34:53.926Z,40.16
2018-02-14T05:35:54.390Z,40.16
2018-02-14T05:36:54.850Z,40.12
2018-02-14T05:37:55.360Z,40.13
2018-02-14T05:38:55.769Z,40.11
2018-02-14T05:39:56.231Z,40.13
2018-02-14T05:40:56.692Z,40.16
2018-02-14T05:41:57.150Z,40.14
2018-02-14T05:42:57.661Z,40.14
2018-02-14T05:43:58.069Z,40.13
2018-02-14T05:44:58.534Z,40.13
2018-02-14T05:45:58.989Z,40.14
2018-02-14T05:46:59.451Z,40.18
2018-02-14T05:47:59.912Z,40.17
2018-02-14T05:49:00.372Z,40.18
2018-02-14T05:52:01.752Z,40.20
2018-02-14T05:53:02.209Z,40.16
2018-02-14T05:54:02.672Z,40.11
2018-02-14T05:55:03.133Z,40.14
2018-02-14T05:56:03.594Z,40.13
2018-02-14T05:57:04.054Z,40.15
2018-02-14T05:58:04.508Z,40.17
2018-02-14T05:59:04.973Z,40.17
2018-02-14T06:00:05.436Z,40.19
2018-02-14T06:01:05.895Z,40.21
2018-02-14T06:02:06.349Z,40.20
2018-02-14T06:03:06.814Z,40.16
2018-02-14T06:04:07.275Z,40.15
2018-02-14T06:05:07.733Z,40.13
2018-02-14T06:06:08.193Z,40.14
2018-02-14T06:07:08.651Z,40.13
2018-02-14T06:08:09.114Z,40.16
2018-02-14T06:09:09.575Z,40.17
2018-02-14T06:10:10.035Z,40.19
2018-02-14T06:11:10.495Z,40.22
2018-02-14T06:12:10.957Z,40.22
2018-02-14T06:14:11.874Z,40.13
2018-02-14T06:15:12.335Z,40.11
2018-02-14T06:16:12.795Z,40.07
2018-02-14T06:17:13.256Z,40.05
2018-02-14T06:18:13.714Z,40.08
2018-02-14T06:19:14.175Z,40.13
2018-02-14T06:20:14.636Z,40.16
2018-02-14T06:21:15.096Z,40.17
2018-02-14T06:22:15.557Z,40.15
2018-02-14T06:23:16.018Z,40.19
2018-02-14T06:24:16.476Z,40.15
2018-02-14T06:25:16.932Z,40.11
2018-02-14T06:27:17.855Z,40.14
2018-02-14T06:29:18.778Z,40.18
2018-02-14T06:30:19.232Z,40.20
2018-02-14T06:31:19.698Z,40.21
2018-02-14T06:32:20.158Z,40.24
2018-02-14T06:33:20.618Z,40.24
2018-02-14T06:34:21.072Z,40.26
2018-02-14T06:35:21.538Z,40.27
2018-02-14T06:36:21.997Z,40.29
2018-02-14T06:37:22.460Z,40.28
2018-02-14T06:38:22.965Z,40.26
2018-02-14T06:39:23.378Z,40.29
2018-02-14T06:40:23.839Z,40.34
2018-02-14T06:41:24.300Z,40.39
2018-02-14T06:42:24.760Z,40.37
2018-02-14T06:43:25.276Z,40.42
2018-02-14T06:44:25.681Z,40.41
2018-02-14T06:45:26.141Z,40.41
2018-02-14T06:46:26.602Z,40.42
2018-02-14T06:47:27.063Z,40.46
2018-02-14T06:48:27.574Z,40.51
2018-02-14T06:50:28.445Z,40.62
2018-02-14T06:52:29.362Z,40.72
2018-02-14T06:53:29.877Z,40.79
2018-02-14T06:54:30.287Z,40.88
2018-02-14T06:55:30.748Z,40.92
2018-02-14T06:56:31.210Z,40.98
2018-02-14T06:57:31.670Z,41.02
2018-02-14T06:58:32.184Z,41.07
2018-02-14T06:59:32.590Z,41.12
2018-02-14T07:00:33.055Z,41.14
2018-02-14T07:01:33.517Z,41.15
2018-02-14T07:02:33.976Z,41.21
2018-02-14T07:03:34.487Z,41.27
2018-02-14T07:04:34.901Z,41.38
2018-02-14T07:05:35.361Z,41.42
2018-02-14T07:06:35.821Z,41.48
2018-02-14T07:07:36.284Z,41.56
2018-02-14T07:08:36.797Z,41.68
2018-02-14T07:09:37.206Z,41.82
2018-02-14T07:10:37.666Z,41.88
2018-02-14T07:11:38.131Z,41.93
2018-02-14T07:12:38.590Z,42.02
2018-02-14T07:13:39.103Z,42.08
2018-02-14T07:14:39.513Z,42.18
2018-02-14T07:15:39.976Z,42.18
2018-02-14T07:16:40.438Z,42.23
2018-02-14T07:17:40.897Z,42.32
2018-02-14T07:18:41.412Z,42.39
2018-02-14T07:19:41.823Z,42.50
2018-02-14T07:21:42.746Z,42.69
2018-02-14T07:22:43.210Z,42.77
2018-02-14T07:23:43.723Z,42.87
2018-02-14T07:24:44.136Z,42.93
2018-02-14T07:25:44.598Z,43.00
2018-02-14T07:26:45.060Z,43.06
2018-02-14T07:28:45.980Z,43.19
2018-02-14T07:29:46.447Z,43.24
2018-02-14T07:30:46.910Z,43.28
2018-02-14T07:31:47.374Z,43.39
2018-02-14T07:32:47.832Z,43.38
2018-02-14T07:34:00.434Z,43.39
2018-02-14T07:34:48.761Z,43.48
2018-02-14T07:35:49.224Z,43.57
2018-02-14T07:36:49.687Z,43.65
2018-02-14T07:37:50.150Z,43.71
2018-02-14T07:38:50.615Z,43.79
2018-02-14T07:39:51.072Z,43.88
2018-02-14T07:40:51.541Z,43.96
2018-02-14T07:41:52.003Z,44.04
2018-02-14T07:43:52.980Z,44.08
2018-02-14T07:45:53.862Z,44.04
2018-02-14T07:46:54.320Z,44.10
2018-02-14T07:47:54.786Z,44.15
2018-02-14T07:48:55.246Z,44.17
2018-02-14T07:49:55.711Z,44.22
2018-02-14T07:50:56.170Z,44.24
2018-02-14T07:51:56.640Z,44.29
2018-02-14T07:52:57.102Z,44.31
2018-02-14T07:53:57.618Z,44.40
2018-02-14T07:54:58.030Z,44.50
2018-02-14T07:55:58.494Z,44.54
2018-02-14T07:56:58.968Z,44.62
2018-02-14T07:57:59.420Z,44.66
2018-02-14T07:58:59.938Z,44.70
2018-02-14T08:00:00.352Z,44.78
2018-02-14T08:01:00.819Z,44.76
2018-02-14T08:02:01.280Z,44.67
2018-02-14T08:03:01.745Z,44.65
2018-02-14T08:05:02.697Z,44.71
2018-02-14T08:06:03.141Z,44.75
2018-02-14T08:07:03.605Z,44.71
2018-02-14T08:08:04.072Z,44.63
2018-02-14T08:09:04.534Z,44.53
2018-02-14T08:10:05.002Z,44.46
2018-02-14T08:11:05.465Z,44.37
2018-02-14T08:12:05.931Z,44.25
2018-02-14T08:13:06.398Z,44.30
2018-02-14T08:14:06.914Z,44.42
2018-02-14T08:15:07.327Z,44.49
2018-02-14T08:16:07.793Z,44.56
2018-02-14T08:17:08.259Z,44.54
2018-02-14T08:19:09.392Z,44.47
2018-02-14T08:20:09.656Z,44.52
2018-02-14T08:21:10.123Z,44.57
2018-02-14T08:22:10.585Z,44.64
2018-02-14T08:23:11.053Z,44.69
2018-02-14T08:24:11.575Z,44.73
2018-02-14T08:25:11.987Z,44.75
2018-02-14T08:26:12.453Z,44.76
2018-02-14T08:27:12.919Z,44.80
2018-02-14T08:28:13.385Z,44.71
2018-02-14T08:29:13.847Z,44.56
2018-02-14T08:30:14.318Z,44.51
2018-02-14T08:32:15.252Z,44.51
2018-02-14T08:33:15.714Z,44.48
2018-02-14T08:34:27.513Z,44.53
2018-02-14T08:35:16.652Z,44.50
2018-02-14T08:36:17.118Z,44.50
2018-02-14T08:37:17.586Z,44.57
2018-02-14T08:38:18.054Z,44.61
2018-02-14T08:39:18.520Z,44.63
2018-02-14T08:40:18.982Z,44.71
2018-02-14T08:41:19.455Z,44.78
2018-02-14T08:42:19.921Z,44.79
2018-02-14T08:43:20.388Z,44.82
2018-02-14T08:45:21.323Z,44.83
2018-02-14T08:46:21.790Z,44.83
2018-02-14T08:47:22.258Z,44.83
2018-02-14T08:48:22.726Z,44.79
2018-02-14T08:49:23.195Z,44.79
2018-02-14T08:50:23.662Z,44.72
2018-02-14T08:51:24.129Z,44.65
2018-02-14T08:52:24.799Z,44.62
2018-02-14T08:53:25.066Z,44.64
2018-02-14T08:54:25.534Z,44.74
2018-02-14T08:55:25.997Z,44.70
2018-02-14T08:56:26.470Z,44.66
2018-02-14T08:57:26.936Z,44.63
2018-02-14T08:58:27.408Z,44.57
2018-02-14T09:00:28.394Z,44.40
2018-02-14T09:01:28.811Z,44.32
2018-02-14T09:02:29.281Z,44.29
2018-02-14T09:03:29.743Z,44.24
2018-02-14T09:04:30.217Z,44.19
2018-02-14T09:05:42.574Z,44.17
2018-02-14T09:06:31.155Z,44.12
2018-02-14T09:07:31.617Z,44.08
2018-02-14T09:08:32.091Z,44.01
2018-02-14T09:09:32.560Z,43.93
2018-02-14T09:10:33.030Z,43.91
2018-02-14T09:11:33.498Z,43.85
2018-02-14T09:12:33.968Z,43.87
2018-02-14T09:14:34.901Z,43.89
2018-02-14T09:16:35.843Z,43.95
2018-02-14T09:17:36.314Z,43.94
2018-02-14T09:18:36.778Z,43.90
2018-02-14T09:19:37.251Z,43.83
2018-02-14T09:20:37.718Z,43.79
2018-02-14T09:21:38.238Z,43.77
2018-02-14T09:22:38.658Z,43.81
2018-02-14T09:23:39.127Z,43.87
2018-02-14T09:24:39.596Z,43.91
2018-02-14T09:25:40.061Z,43.86
2018-02-14T09:28:41.472Z,43.77
2018-02-14T09:29:41.938Z,43.73
2018-02-14T09:30:42.413Z,43.73
2018-02-14T09:31:42.931Z,43.70
2018-02-14T09:32:43.351Z,43.75
2018-02-14T09:33:43.823Z,43.75
2018-02-14T09:34:44.291Z,43.82
2018-02-14T09:35:44.761Z,43.82
2018-02-14T09:36:45.227Z,43.80
2018-02-14T09:37:45.701Z,43.81
2018-02-14T09:38:46.169Z,43.83
2018-02-14T09:39:46.640Z,43.87
2018-02-14T09:40:47.106Z,43.86
2018-02-14T09:41:47.630Z,43.86
2018-02-14T09:42:48.054Z,43.88
2018-02-14T09:43:48.517Z,43.88
2018-02-14T09:45:49.458Z,43.94
2018-02-14T09:46:49.977Z,43.99
2018-02-14T09:47:50.393Z,44.03
2018-02-14T09:48:50.866Z,44.12
2018-02-14T09:49:51.337Z,44.09
2018-02-14T09:50:51.807Z,44.01
2018-02-14T09:51:52.322Z,43.99
2018-02-14T09:52:52.747Z,44.00
2018-02-14T09:53:53.217Z,44.00
2018-02-14T09:54:53.690Z,44.03
2018-02-14T09:55:54.158Z,44.08
2018-02-14T09:57:55.149Z,44.19
2018-02-14T09:58:55.563Z,44.19
2018-02-14T09:59:56.041Z,44.17
2018-02-14T10:00:56.508Z,44.21
2018-02-14T10:01:56.980Z,44.21
2018-02-14T10:02:57.451Z,44.15
2018-02-14T10:03:57.920Z,44.17
2018-02-14T10:04:58.427Z,44.22
2018-02-14T10:05:58.860Z,44.21
2018-02-14T10:06:59.333Z,44.15
2018-02-14T10:09:00.272Z,44.04
2018-02-14T10:10:00.748Z,44.02
2018-02-14T10:11:01.215Z,44.08
2018-02-14T10:12:01.713Z,44.08
2018-02-14T10:13:02.155Z,44.01
2018-02-14T10:14:02.622Z,43.90
2018-02-14T10:15:03.096Z,43.86
2018-02-14T10:16:03.566Z,43.91
2018-02-14T10:17:04.037Z,43.87
2018-02-14T10:18:04.562Z,43.88
2018-02-14T10:19:04.979Z,43.72
2018-02-14T10:20:05.449Z,43.78
2018-02-14T10:21:05.920Z,43.82
2018-02-14T10:22:06.391Z,43.79
2018-02-14T10:23:06.912Z,43.69
2018-02-14T10:24:07.332Z,43.68
2018-02-14T10:25:07.799Z,43.60
2018-02-14T10:26:08.275Z,43.63
2018-02-14T10:27:08.745Z,43.68
2018-02-14T10:28:09.214Z,43.62
2018-02-14T10:29:09.683Z,43.59
2018-02-14T10:30:10.158Z,43.47
2018-02-14T10:31:10.669Z,43.38
2018-02-14T10:32:11.100Z,43.26
2018-02-14T10:33:11.571Z,43.29
2018-02-14T10:35:12.514Z,43.02
2018-02-14T10:36:12.977Z,43.05
2018-02-14T10:37:13.455Z,43.04
2018-02-14T10:39:14.397Z,43.08
2018-02-14T10:40:14.863Z,43.10
2018-02-14T10:41:15.339Z,43.18
2018-02-14T10:42:15.812Z,43.10
2018-02-14T10:43:16.332Z,43.17
2018-02-14T10:44:16.752Z,43.23
2018-02-14T10:45:17.224Z,43.26
2018-02-14T10:46:17.696Z,43.24
2018-02-14T10:47:18.162Z,43.18
2018-02-14T10:48:18.640Z,43.15
2018-02-14T10:49:19.125Z,43.18
2018-02-14T10:50:19.584Z,43.34
2018-02-14T10:51:20.053Z,43.27
2018-02-14T10:52:20.526Z,43.28
2018-02-14T10:53:21.048Z,43.18
2018-02-14T10:54:21.468Z,43.28
2018-02-14T10:55:21.938Z,43.27
2018-02-14T10:56:22.411Z,43.31
2018-02-14T10:57:22.882Z,43.38
2018-02-14T10:58:23.401Z,43.33
2018-02-14T10:59:23.829Z,43.21
2018-02-14T11:00:24.302Z,43.09
2018-02-14T11:01:24.771Z,43.22
2018-02-14T11:02:25.241Z,43.20
2018-02-14T11:03:25.764Z,43.18
2018-02-14T11:04:26.184Z,43.18
2018-02-14T11:05:26.651Z,43.14
2018-02-14T11:06:27.128Z,43.20
2018-02-14T11:07:27.601Z,43.17
2018-02-14T11:08:28.121Z,43.09
2018-02-14T11:09:28.543Z,43.02
2018-02-14T11:10:29.014Z,43.08
2018-02-14T11:11:29.489Z,43.03
2018-02-14T11:12:29.958Z,42.99
2018-02-14T11:13:30.482Z,42.98
2018-02-14T11:14:30.904Z,42.97
2018-02-14T11:15:31.376Z,43.00
2018-02-14T11:16:31.845Z,43.06
2018-02-14T11:17:32.659Z,43.05
2018-02-14T11:18:32.790Z,43.07
2018-02-14T11:19:33.267Z,42.99
2018-02-14T11:20:33.735Z,42.98
2018-02-14T11:21:34.201Z,42.96
2018-02-14T11:22:34.685Z,42.97
2018-02-14T11:23:35.156Z,43.05
2018-02-14T11:24:35.624Z,42.99
2018-02-14T11:25:36.099Z,43.00
2018-02-14T11:26:36.568Z,43.02
2018-02-14T11:27:37.043Z,43.10
2018-02-14T11:28:49.704Z,43.06
2018-02-14T11:29:37.983Z,43.07
2018-02-14T11:30:38.457Z,43.00
2018-02-14T11:31:38.931Z,42.90
2018-02-14T11:32:39.398Z,42.90
2018-02-14T11:33:39.873Z,42.91
2018-02-14T11:34:40.348Z,42.93
2018-02-14T11:35:40.818Z,42.94
2018-02-14T11:36:41.291Z,42.90
2018-02-14T11:37:41.762Z,42.77
2018-02-14T11:39:42.705Z,42.56
2018-02-14T11:40:43.183Z,42.46
2018-02-14T11:41:43.651Z,42.42
2018-02-14T11:42:44.125Z,42.38
2018-02-14T11:43:44.595Z,42.36
2018-02-14T11:44:45.068Z,42.36
2018-02-14T11:45:45.541Z,42.29
2018-02-14T11:46:46.014Z,42.21
2018-02-14T11:47:46.487Z,42.29
2018-02-14T11:48:46.959Z,42.30
2018-02-14T11:49:47.434Z,42.30
2018-02-14T11:50:47.900Z,42.22
2018-02-14T11:51:48.377Z,42.13
2018-02-14T11:52:48.850Z,42.13
2018-02-14T11:53:49.375Z,42.09
2018-02-14T11:54:49.789Z,42.13
2018-02-14T11:55:50.267Z,42.22
2018-02-14T11:56:50.739Z,42.16
2018-02-14T11:57:51.213Z,42.06
2018-02-14T11:58:51.686Z,42.23
2018-02-14T12:00:52.629Z,42.54
2018-02-14T12:01:53.102Z,42.61
2018-02-14T12:02:53.576Z,42.64
2018-02-14T12:03:54.101Z,42.70
2018-02-14T12:04:54.521Z,42.80
2018-02-14T12:05:54.993Z,42.91
2018-02-14T12:06:55.466Z,42.94
2018-02-14T12:07:55.940Z,42.98
2018-02-14T12:08:56.407Z,43.05
2018-02-14T12:10:57.357Z,43.19
2018-02-14T12:11:57.830Z,43.26
2018-02-14T12:12:58.301Z,43.19
2018-02-14T12:14:10.711Z,43.10
2018-02-14T12:14:59.248Z,43.13
2018-02-14T12:15:59.722Z,43.13
2018-02-14T12:17:00.195Z,43.17
2018-02-14T12:18:00.668Z,43.22
2018-02-14T12:19:01.190Z,43.33
2018-02-14T12:20:01.608Z,43.48
2018-02-14T12:21:02.126Z,43.54
2018-02-14T12:22:02.557Z,43.43
2018-02-14T12:23:03.030Z,43.34
2018-02-14T12:24:03.557Z,43.14
2018-02-14T12:25:03.975Z,43.11
2018-02-14T12:26:04.442Z,43.13
2018-02-14T12:27:04.920Z,43.25
2018-02-14T12:28:05.395Z,43.27
2018-02-14T12:29:05.917Z,43.30
2018-02-14T12:30:06.336Z,43.32
2018-02-14T12:31:06.810Z,43.23
2018-02-14T12:32:07.282Z,43.27
2018-02-14T12:33:07.751Z,43.43
2018-02-14T12:34:08.277Z,43.43
2018-02-14T12:35:08.701Z,43.42
2018-02-14T12:37:09.641Z,43.44
2018-02-14T12:38:10.119Z,43.58
2018-02-14T12:39:10.793Z,43.45
2018-02-14T12:40:11.063Z,43.27
2018-02-14T12:41:11.533Z,43.05
2018-02-14T12:42:12.009Z,43.00
2018-02-14T12:43:12.480Z,42.86
2018-02-14T12:44:12.954Z,42.75
2018-02-14T12:45:13.424Z,42.55
2018-02-14T12:46:13.901Z,42.65
2018-02-14T12:47:14.371Z,42.71
2018-02-14T12:48:14.842Z,42.61
2018-02-14T12:49:15.365Z,42.50
2018-02-14T12:50:15.788Z,42.35
2018-02-14T12:52:16.734Z,42.12
2018-02-14T12:53:17.201Z,42.06
2018-02-14T12:54:17.678Z,42.04
2018-02-14T12:55:18.151Z,42.05
2018-02-14T12:56:18.622Z,42.06
2018-02-14T12:57:19.095Z,42.07
2018-02-14T12:58:19.567Z,41.88
2018-02-14T12:59:20.242Z,41.82
2018-02-14T13:00:20.523Z,41.74
2018-02-14T13:01:20.985Z,41.60
2018-02-14T13:02:21.457Z,41.57
2018-02-14T13:03:21.931Z,41.54
2018-02-14T13:04:22.398Z,41.64
2018-02-14T13:05:22.874Z,41.67
2018-02-14T13:06:23.346Z,41.64
2018-02-14T13:07:23.819Z,41.67
2018-02-14T13:09:36.801Z,41.53
2018-02-14T13:10:25.237Z,41.62
2018-02-14T13:11:25.709Z,41.63
2018-02-14T13:12:26.182Z,41.70
2018-02-14T13:13:26.855Z,41.80
2018-02-14T13:15:27.595Z,41.93
2018-02-14T13:16:28.072Z,41.89
2018-02-14T13:17:28.537Z,41.90
2018-02-14T13:18:29.016Z,41.82
2018-02-14T13:19:29.539Z,41.74
2018-02-14T13:20:29.959Z,41.71
2018-02-14T13:21:30.432Z,41.87
2018-02-14T13:22:30.905Z,41.91
2018-02-14T13:23:31.373Z,41.82
2018-02-14T13:24:31.899Z,41.84
2018-02-14T13:25:32.320Z,41.86
2018-02-14T13:28:33.738Z,41.94
2018-02-14T13:29:45.795Z,41.88
2018-02-14T13:30:34.681Z,41.71
2018-02-14T13:31:35.154Z,41.62
2018-02-14T13:32:35.627Z,41.52
2018-02-14T13:33:36.099Z,41.46
2018-02-14T13:34:36.620Z,41.25
2018-02-14T13:35:37.043Z,41.14
2018-02-14T13:36:37.517Z,40.98
2018-02-14T13:37:37.987Z,41.11
2018-02-14T13:38:38.460Z,41.21
2018-02-14T13:39:50.817Z,41.23
2018-02-14T13:40:39.404Z,40.99
2018-02-14T13:41:39.874Z,41.02
2018-02-14T13:42:40.391Z,40.98
2018-02-14T13:45:41.759Z,40.91
2018-02-14T13:47:42.708Z,40.89
2018-02-14T13:48:43.182Z,40.86
2018-02-14T13:50:44.129Z,40.83
2018-02-14T13:51:44.602Z,40.80
2018-02-14T13:52:45.070Z,40.68
2018-02-14T13:53:45.545Z,40.72
2018-02-14T13:54:46.015Z,40.77
2018-02-14T13:55:46.481Z,40.71
2018-02-14T13:56:46.959Z,40.58
2018-02-14T13:57:47.429Z,40.42
2018-02-14T13:58:47.903Z,40.37
2018-02-14T13:59:48.374Z,40.38
2018-02-14T14:00:48.896Z,40.32
2018-02-14T14:01:49.318Z,40.25
2018-02-14T14:02:49.785Z,40.23